createdAt,value
2017-08-02T19:41:55.770Z,998.76
2017-08-02T19:42:56.355Z,998.76
2017-08-02T19:43:55.765Z,998.72
2017-08-02T19:44:55.781Z,998.75
2017-08-02T19:45:55.792Z,998.76
2017-08-02T19:47:17.512Z,998.75
2017-08-02T19:48:17.463Z,998.70
2017-08-02T19:49:17.489Z,998.71
2017-08-02T19:50:17.466Z,998.66
2017-08-02T19:51:17.467Z,998.68
2017-08-02T19:52:17.490Z,998.65
2017-08-02T19:53:17.464Z,998.71
2017-08-02T19:54:17.468Z,998.71
2017-08-02T19:55:17.461Z,998.75
2017-08-02T19:56:17.547Z,998.74
2017-08-02T19:57:18.011Z,998.76
2017-08-02T19:58:17.544Z,998.78
2017-08-02T19:59:17.466Z,998.76
2017-08-02T20:00:17.514Z,998.71
2017-08-02T20:01:17.698Z,998.76
2017-08-02T20:02:17.520Z,998.75
2017-08-02T20:03:17.477Z,998.74
2017-08-02T20:04:17.458Z,998.78
2017-08-02T20:05:17.491Z,998.76
2017-08-02T20:06:17.594Z,998.79
2017-08-02T20:07:18.021Z,998.81
2017-08-02T20:08:17.502Z,998.79
2017-08-02T20:09:17.465Z,998.75
2017-08-02T20:10:17.453Z,998.65
2017-08-02T20:11:17.475Z,998.63
2017-08-02T20:12:17.593Z,998.65
2017-08-02T20:13:17.534Z,998.68
2017-08-02T20:14:17.433Z,998.71
2017-08-02T20:15:18.136Z,998.70
2017-08-02T20:16:17.493Z,998.78
2017-08-02T20:17:17.498Z,998.75
2017-08-02T20:18:17.494Z,998.72
2017-08-02T20:19:17.460Z,998.70
2017-08-02T20:20:17.471Z,998.73
2017-08-02T20:21:17.468Z,998.76
2017-08-02T20:22:17.504Z,998.83
2017-08-02T20:23:17.458Z,998.75
2017-08-02T20:24:17.482Z,998.75
2017-08-02T20:25:17.567Z,998.80
2017-08-02T20:26:17.443Z,998.78
2017-08-02T20:27:17.492Z,998.83
2017-08-02T20:28:18.052Z,998.82
2017-08-02T20:29:17.442Z,998.73
2017-08-02T20:30:17.468Z,998.76
2017-08-02T20:31:17.495Z,998.78
2017-08-02T20:32:17.551Z,998.68
2017-08-02T20:33:17.488Z,998.72
2017-08-02T20:34:17.445Z,998.67
2017-08-02T20:35:18.065Z,998.72
2017-08-02T20:36:17.438Z,998.76
2017-08-02T20:37:17.687Z,998.73
2017-08-02T20:38:17.525Z,998.67
2017-08-02T20:39:17.503Z,998.67
2017-08-02T20:40:17.522Z,998.72
2017-08-02T20:41:17.481Z,998.77
2017-08-02T20:42:17.685Z,998.70
2017-08-02T20:43:17.459Z,998.72
2017-08-02T20:44:18.081Z,998.70
2017-08-02T20:45:17.457Z,998.70
2017-08-02T20:46:17.431Z,998.68
2017-08-02T20:47:17.498Z,998.64
2017-08-02T20:48:17.562Z,998.60
2017-08-02T20:49:18.090Z,998.58
2017-08-02T20:50:17.447Z,998.56
2017-08-02T20:51:17.481Z,998.52
2017-08-02T20:52:17.423Z,998.51
2017-08-02T20:53:17.774Z,998.49
2017-08-02T20:54:18.099Z,998.60
2017-08-02T20:55:17.494Z,998.64
2017-08-02T20:56:17.490Z,998.64
2017-08-02T20:57:17.470Z,998.68
2017-08-02T20:58:17.711Z,998.72
2017-08-02T20:59:17.503Z,998.67
2017-08-02T21:00:17.491Z,998.71
2017-08-02T21:01:17.468Z,998.69
2017-08-02T21:02:17.436Z,998.72
2017-08-02T21:03:17.517Z,998.67
2017-08-02T21:04:18.113Z,998.63
2017-08-02T21:05:17.481Z,998.68
2017-08-02T21:06:17.457Z,998.68
2017-08-02T21:07:17.420Z,998.66
2017-08-02T21:08:17.498Z,998.64
2017-08-02T21:09:17.459Z,998.65
2017-08-02T21:10:17.551Z,998.62
2017-08-02T21:11:17.488Z,998.69
2017-08-02T21:12:17.488Z,998.67
2017-08-02T21:13:17.780Z,998.66
2017-08-02T21:14:17.535Z,998.64
2017-08-02T21:15:17.459Z,998.61
2017-08-02T21:16:17.433Z,998.59
2017-08-02T21:17:17.448Z,998.55
2017-08-02T21:18:17.748Z,998.50
2017-08-02T21:19:17.437Z,998.50
2017-08-02T21:20:17.512Z,998.50
2017-08-02T21:21:18.143Z,998.50
2017-08-02T21:22:17.526Z,998.51
2017-08-02T21:23:18.144Z,998.50
2017-08-02T21:24:17.539Z,998.54
2017-08-02T21:25:19.146Z,998.54
2017-08-02T21:26:17.457Z,998.51
2017-08-02T21:27:17.414Z,998.50
2017-08-02T21:28:17.503Z,998.42
2017-08-02T21:29:17.436Z,998.50
2017-08-02T21:30:17.440Z,998.45
2017-08-02T21:31:17.483Z,998.48
2017-08-02T21:32:17.476Z,998.50
2017-08-02T21:33:17.575Z,998.48
2017-08-02T21:34:17.497Z,998.51
2017-08-02T21:35:17.413Z,998.46
2017-08-02T21:36:17.470Z,998.48
2017-08-02T21:37:18.167Z,998.42
2017-08-02T21:38:17.437Z,998.48
2017-08-02T21:39:17.427Z,998.47
2017-08-02T21:40:17.427Z,998.49
2017-08-02T21:41:18.675Z,998.42
2017-08-02T21:42:17.434Z,998.45
2017-08-02T21:43:17.463Z,998.49
2017-08-02T21:44:17.839Z,998.40
2017-08-02T21:45:18.184Z,998.43
2017-08-02T21:46:17.434Z,998.40
2017-08-02T21:47:17.442Z,998.45
2017-08-02T21:48:18.186Z,998.44
2017-08-02T21:49:17.508Z,998.42
2017-08-02T21:50:17.399Z,998.44
2017-08-02T21:51:17.451Z,998.40
2017-08-02T21:52:17.475Z,998.40
2017-08-02T21:53:17.437Z,998.31
2017-08-02T21:54:17.459Z,998.36
2017-08-02T21:55:17.496Z,998.36
2017-08-02T21:56:17.422Z,998.43
2017-08-02T21:57:17.436Z,998.35
2017-08-02T21:58:18.701Z,998.38
2017-08-02T21:59:17.443Z,998.37
2017-08-02T22:00:17.454Z,998.41
2017-08-02T22:01:17.392Z,998.36
2017-08-02T22:02:17.435Z,998.35
2017-08-02T22:03:17.393Z,998.34
2017-08-02T22:04:17.464Z,998.29
2017-08-02T22:05:17.479Z,998.25
2017-08-02T22:06:17.438Z,998.25
2017-08-02T22:07:17.409Z,998.27
2017-08-02T22:08:17.460Z,998.29
2017-08-02T22:09:17.452Z,998.27
2017-08-02T22:10:17.474Z,998.23
2017-08-02T22:11:17.415Z,998.22
2017-08-02T22:12:17.413Z,998.22
2017-08-02T22:13:17.396Z,998.24
2017-08-02T22:14:17.502Z,998.24
2017-08-02T22:15:17.423Z,998.25
2017-08-02T22:16:17.426Z,998.25
2017-08-02T22:17:17.416Z,998.26
2017-08-02T22:18:18.234Z,998.25
2017-08-02T22:19:17.469Z,998.23
2017-08-02T22:20:17.497Z,998.18
2017-08-02T22:21:17.402Z,998.19
2017-08-02T22:22:17.395Z,998.14
2017-08-02T22:23:17.532Z,998.13
2017-08-02T22:24:17.402Z,998.17
2017-08-02T22:25:17.484Z,998.15
2017-08-02T22:26:17.431Z,998.13
2017-08-02T22:27:17.456Z,998.08
2017-08-02T22:28:17.416Z,998.12
2017-08-02T22:29:17.407Z,998.11
2017-08-02T22:30:17.426Z,998.16
2017-08-02T22:31:17.428Z,998.13
2017-08-02T22:32:18.266Z,998.17
2017-08-02T22:33:17.459Z,998.17
2017-08-02T22:34:17.399Z,998.12
2017-08-02T22:35:17.417Z,998.20
2017-08-02T22:36:18.265Z,998.14
2017-08-02T22:37:18.298Z,998.16
2017-08-02T22:38:17.423Z,998.16
2017-08-02T22:39:17.413Z,998.14
2017-08-02T22:40:17.421Z,998.18
2017-08-02T22:41:17.382Z,998.21
2017-08-02T22:42:17.424Z,998.20
2017-08-02T22:43:17.462Z,998.24
2017-08-02T22:44:17.379Z,998.16
2017-08-02T22:45:18.818Z,998.20
2017-08-02T22:46:17.368Z,998.18
2017-08-02T22:47:17.430Z,998.19
2017-08-02T22:48:17.428Z,998.17
2017-08-02T22:49:17.402Z,998.13
2017-08-02T22:50:17.465Z,998.09
2017-08-02T22:51:18.293Z,998.13
2017-08-02T22:52:18.290Z,998.11
2017-08-02T22:53:18.356Z,998.06
2017-08-02T22:54:17.516Z,998.00
2017-08-02T22:55:17.472Z,997.99
2017-08-02T22:56:17.450Z,998.00
2017-08-02T22:57:17.386Z,997.94
2017-08-02T22:58:18.304Z,997.90
2017-08-02T22:59:17.400Z,997.99
2017-08-02T23:00:17.513Z,997.98
2017-08-02T23:01:17.522Z,997.91
2017-08-02T23:02:17.413Z,997.86
2017-08-02T23:03:17.380Z,997.92
2017-08-02T23:04:18.313Z,997.89
2017-08-02T23:05:17.377Z,997.84
2017-08-02T23:06:17.448Z,997.81
2017-08-02T23:07:17.555Z,997.80
2017-08-02T23:08:17.408Z,997.80
2017-08-02T23:09:17.425Z,997.80
2017-08-02T23:10:17.403Z,997.83
2017-08-02T23:11:17.437Z,997.73
2017-08-02T23:12:17.395Z,997.74
2017-08-02T23:13:17.376Z,997.76
2017-08-02T23:14:17.487Z,997.75
2017-08-02T23:15:17.394Z,997.79
2017-08-02T23:16:17.383Z,997.84
2017-08-02T23:17:17.367Z,997.83
2017-08-02T23:18:17.411Z,997.88
2017-08-02T23:19:17.401Z,997.88
2017-08-02T23:20:17.422Z,997.90
2017-08-02T23:21:17.452Z,997.89
2017-08-02T23:22:17.400Z,997.88
2017-08-02T23:23:17.404Z,997.85
2017-08-02T23:24:17.500Z,997.75
2017-08-02T23:25:17.409Z,997.72
2017-08-02T23:26:18.347Z,997.64
2017-08-02T23:27:17.395Z,997.68
2017-08-02T23:28:17.416Z,997.73
2017-08-02T23:29:17.404Z,997.78
2017-08-02T23:30:17.397Z,997.79
2017-08-02T23:31:17.443Z,997.80
2017-08-02T23:32:17.446Z,997.77
2017-08-02T23:33:17.371Z,997.74
2017-08-02T23:34:17.438Z,997.68
2017-08-02T23:35:17.423Z,997.68
2017-08-02T23:36:17.439Z,997.69
2017-08-02T23:37:17.368Z,997.64
2017-08-02T23:38:17.401Z,997.69
2017-08-02T23:39:17.445Z,997.66
2017-08-02T23:40:17.367Z,997.64
2017-08-02T23:41:17.408Z,997.62
2017-08-02T23:42:17.398Z,997.57
2017-08-02T23:43:17.395Z,997.55
2017-08-02T23:44:17.462Z,997.49
2017-08-02T23:45:17.565Z,997.52
2017-08-02T23:46:17.441Z,997.44
2017-08-02T23:47:17.372Z,997.45
2017-08-02T23:48:17.882Z,997.48
2017-08-02T23:49:17.387Z,997.46
2017-08-02T23:50:17.474Z,997.48
2017-08-02T23:51:17.385Z,997.50
2017-08-02T23:52:17.394Z,997.57
2017-08-02T23:53:17.411Z,997.50
2017-08-02T23:54:17.381Z,997.52
2017-08-02T23:55:17.392Z,997.51
2017-08-02T23:56:17.411Z,997.55
2017-08-02T23:57:17.411Z,997.50
2017-08-02T23:58:18.404Z,997.51
2017-08-02T23:59:17.901Z,997.50
